Time;durP1;ratioP1;P1;durP2;ratioP2;P2;SDS_P1;SDS_P2;PMS_P1;PMS_P2;Temp;Humidity;BMP_temperature;BMP_pressure;BME280_temperature;BME280_humidity;BME280_pressure;Samples;Min_cycle;Max_cycle;Signal;HPM_P1;HPM_P2
2022/06/30 00:01:39;;;;;;;4.05;2.17;;;19.70;99.90;;;;;;6243014;28;20050;-80
2022/06/30 00:04:41;;;;;;;7.88;2.58;;;19.70;99.90;;;;;;6243867;28;20081;-80
2022/06/30 00:07:42;;;;;;;4.15;2.45;;;19.60;99.90;;;;;;6243267;28;20105;-80
2022/06/30 00:10:44;;;;;;;3.65;2.00;;;19.60;99.90;;;;;;6244383;28;20046;-80
2022/06/30 00:13:48;;;;;;;4.38;2.40;;;19.50;99.90;;;;;;6244205;28;20049;-80
2022/06/30 00:16:49;;;;;;;3.92;2.38;;;19.50;99.90;;;;;;6243777;28;20056;-80
2022/06/30 00:19:51;;;;;;;7.85;2.47;;;19.50;99.90;;;;;;6241798;28;20050;-80
2022/06/30 00:22:53;;;;;;;3.60;2.15;;;19.50;99.90;;;;;;6218415;28;20053;-81
2022/06/30 00:25:55;;;;;;;2.88;1.90;;;19.50;99.90;;;;;;6219807;28;20130;-81
2022/06/30 00:28:58;;;;;;;3.20;2.20;;;19.40;99.90;;;;;;6212233;28;20047;-81
2022/06/30 00:31:59;;;;;;;5.35;2.35;;;19.40;99.90;;;;;;6221154;28;20060;-79
2022/06/30 00:35:01;;;;;;;3.88;2.42;;;19.30;99.90;;;;;;6220262;28;20057;-80
2022/06/30 00:38:04;;;;;;;4.07;2.63;;;19.30;99.90;;;;;;6218445;28;20133;-80
2022/06/30 00:41:05;;;;;;;7.88;2.67;;;19.20;99.90;;;;;;6207875;28;20050;-77
2022/06/30 00:44:12;;;;;;;7.57;2.72;;;19.20;99.90;;;;;;6215203;28;20049;-79
2022/06/30 00:47:14;;;;;;;6.55;2.38;;;19.20;99.90;;;;;;6234038;28;20064;-79
2022/06/30 00:50:16;;;;;;;2.53;2.13;;;19.20;99.90;;;;;;6233608;28;20057;-80
2022/06/30 00:53:19;;;;;;;7.07;2.03;;;19.10;99.90;;;;;;6234184;28;20451;-79
2022/06/30 00:56:22;;;;;;;2.40;2.17;;;19.10;99.90;;;;;;6231262;28;20057;-79
2022/06/30 00:59:27;;;;;;;6.75;2.33;;;19.10;99.90;;;;;;6227346;28;20114;-79
2022/06/30 01:02:29;;;;;;;2.65;2.08;;;19.10;99.90;;;;;;6216638;28;20079;-80
2022/06/30 01:05:31;;;;;;;6.32;2.75;;;19.00;99.90;;;;;;6210917;28;20057;-79
2022/06/30 01:08:33;;;;;;;3.63;1.85;;;19.00;99.90;;;;;;6212169;28;20056;-79
2022/06/30 01:14:59;;;;;;;8.43;2.40;;;19.00;99.90;;;;;;6235757;28;20256;-80
2022/06/30 01:18:01;;;;;;;4.35;2.45;;;19.00;99.90;;;;;;6237391;28;20610;-79
2022/06/30 01:21:03;;;;;;;8.27;1.90;;;18.90;99.90;;;;;;6236445;28;20046;-80
2022/06/30 01:24:07;;;;;;;4.45;2.40;;;18.90;99.90;;;;;;6237104;28;20053;-79
2022/06/30 01:27:08;;;;;;;5.55;2.25;;;18.80;99.90;;;;;;6238272;28;20064;-80
2022/06/30 01:30:11;;;;;;;3.75;2.10;;;18.80;99.90;;;;;;6213163;28;20056;-79
2022/06/30 01:33:13;;;;;;;5.72;1.90;;;18.80;99.90;;;;;;6212504;28;20050;-79
2022/06/30 01:36:15;;;;;;;9.88;2.75;;;18.80;99.90;;;;;;6214271;28;20484;-80
2022/06/30 01:39:18;;;;;;;7.90;2.00;;;18.80;99.90;;;;;;6212344;28;20057;-80
2022/06/30 01:42:20;;;;;;;6.38;2.45;;;18.70;99.90;;;;;;6211326;28;20508;-80
2022/06/30 01:45:23;;;;;;;3.75;2.10;;;18.70;99.90;;;;;;6219815;28;20535;-79
2022/06/30 01:48:25;;;;;;;2.70;2.17;;;18.60;99.90;;;;;;6236516;28;20064;-79
2022/06/30 01:51:27;;;;;;;3.28;2.08;;;18.60;99.90;;;;;;6238588;28;20053;-79
2022/06/30 01:54:30;;;;;;;4.68;2.20;;;18.60;99.90;;;;;;6235431;28;20050;-80
2022/06/30 01:57:32;;;;;;;6.75;2.22;;;18.60;99.90;;;;;;6237269;28;20049;-80
2022/06/30 02:00:33;;;;;;;3.75;1.77;;;18.50;99.90;;;;;;6237530;28;20046;-80
2022/06/30 02:03:35;;;;;;;9.20;2.38;;;18.60;99.90;;;;;;6237236;28;20049;-79
2022/06/30 02:06:37;;;;;;;3.58;1.95;;;18.40;99.90;;;;;;6237544;28;20056;-79
2022/06/30 02:09:40;;;;;;;7.68;2.17;;;18.40;99.90;;;;;;6235528;28;20125;-79
2022/06/30 02:12:48;;;;;;;4.15;3.05;;;18.40;99.90;;;;;;6237189;28;20054;-80
2022/06/30 02:15:50;;;;;;;4.82;3.53;;;18.40;99.90;;;;;;6236930;28;20108;-79
2022/06/30 02:18:52;;;;;;;3.90;3.20;;;18.40;99.90;;;;;;6236758;28;20057;-79
2022/06/30 02:21:53;;;;;;;5.20;2.20;;;18.40;99.90;;;;;;6237095;28;20049;-80
2022/06/30 02:24:56;;;;;;;4.72;2.65;;;18.40;99.90;;;;;;6236664;28;20056;-80
2022/06/30 02:27:58;;;;;;;5.95;2.50;;;18.30;99.90;;;;;;6236961;28;20427;-79
2022/06/30 02:31:00;;;;;;;3.80;2.45;;;18.30;99.90;;;;;;6238320;28;20050;-80
2022/06/30 02:34:02;;;;;;;2.95;2.35;;;18.20;99.90;;;;;;6237331;28;20049;-79
2022/06/30 02:37:04;;;;;;;5.38;2.30;;;18.20;99.90;;;;;;6236856;28;20045;-80
2022/06/30 02:40:08;;;;;;;3.70;2.55;;;18.20;99.90;;;;;;6236717;28;20161;-79
2022/06/30 02:43:10;;;;;;;5.65;2.28;;;18.10;99.90;;;;;;6237351;28;20038;-79
2022/06/30 02:46:12;;;;;;;7.43;2.30;;;18.10;99.90;;;;;;6235790;28;20056;-79
2022/06/30 02:49:13;;;;;;;4.78;2.38;;;18.10;99.90;;;;;;6234055;28;20521;-80
2022/06/30 03:03:08;;;;;;;3.35;2.15;;;17.90;99.90;;;;;;6215452;28;20057;-79
2022/06/30 03:06:40;;;;;;;5.78;2.35;;;18.00;99.90;;;;;;6253791;28;20061;-79
2022/06/30 03:13:28;;;;;;;4.28;2.30;;;17.80;99.90;;;;;;6255677;28;20045;-80
2022/06/30 03:16:30;;;;;;;4.60;2.40;;;17.80;99.90;;;;;;6266391;28;20100;-79
2022/06/30 03:19:46;;;;;;;5.32;1.90;;;17.80;99.90;;;;;;6267463;28;20049;-80
2022/06/30 03:22:47;;;;;;;5.43;2.20;;;17.80;99.90;;;;;;6267959;28;20061;-79
2022/06/30 03:25:49;;;;;;;7.22;2.95;;;17.70;99.90;;;;;;6267804;28;20059;-80
2022/06/30 03:28:51;;;;;;;2.80;1.70;;;17.70;99.90;;;;;;6267453;28;20525;-79
2022/06/30 03:31:53;;;;;;;3.20;2.28;;;17.80;99.90;;;;;;6265863;28;20073;-79
2022/06/30 03:34:56;;;;;;;3.63;2.38;;;17.80;99.90;;;;;;6265409;28;20050;-81
2022/06/30 03:37:57;;;;;;;3.80;1.92;;;17.80;99.90;;;;;;6263607;28;20059;-79
2022/06/30 03:40:59;;;;;;;17.65;4.82;;;17.80;99.90;;;;;;6264413;28;20529;-79
2022/06/30 03:44:01;;;;;;;29.63;5.22;;;17.70;99.90;;;;;;6263124;28;20060;-79
2022/06/30 03:47:03;;;;;;;6.40;2.67;;;17.70;99.90;;;;;;6263448;28;20045;-80
2022/06/30 03:50:08;;;;;;;13.98;3.13;;;17.80;99.90;;;;;;6262529;28;20048;-80
2022/06/30 03:53:10;;;;;;;6.53;2.40;;;17.70;99.90;;;;;;6263676;28;20052;-81
2022/06/30 03:56:12;;;;;;;6.88;3.25;;;17.80;99.90;;;;;;6263992;28;20044;-81
2022/06/30 03:59:14;;;;;;;6.03;2.22;;;17.90;99.90;;;;;;6263349;28;20495;-80
2022/06/30 04:02:16;;;;;;;3.10;1.98;;;18.00;99.90;;;;;;6264222;28;20426;-81
2022/06/30 04:05:19;;;;;;;4.68;2.10;;;18.10;99.90;;;;;;6264798;28;20059;-80
2022/06/30 04:08:20;;;;;;;4.00;1.73;;;18.20;99.90;;;;;;6265883;28;20041;-81
2022/06/30 04:11:22;;;;;;;7.70;2.10;;;18.30;99.90;;;;;;6265839;28;20045;-80
2022/06/30 04:14:24;;;;;;;3.67;1.77;;;18.60;99.90;;;;;;6265334;28;20050;-79
2022/06/30 04:17:26;;;;;;;4.18;1.67;;;19.80;99.90;;;;;;6265085;28;20056;-81
2022/06/30 04:20:29;;;;;;;2.63;1.67;;;21.30;97.60;;;;;;6265645;28;20055;-81
2022/06/30 04:23:30;;;;;;;2.55;2.20;;;22.30;95.30;;;;;;6267470;28;20049;-81
2022/06/30 04:26:32;;;;;;;4.97;1.90;;;22.70;94.20;;;;;;6266400;28;20042;-80
2022/06/30 04:29:34;;;;;;;2.42;1.65;;;22.40;93.90;;;;;;6266996;28;20110;-81
2022/06/30 04:32:37;;;;;;;3.30;1.90;;;22.10;94.10;;;;;;6267282;28;20051;-81
2022/06/30 04:35:41;;;;;;;3.88;1.60;;;21.80;94.40;;;;;;6267112;28;20060;-80
2022/06/30 04:38:42;;;;;;;6.65;1.80;;;21.70;94.80;;;;;;6267944;28;20097;-82
2022/06/30 04:41:44;;;;;;;5.05;1.85;;;22.60;94.30;;;;;;6266531;28;20055;-80
2022/06/30 04:44:46;;;;;;;5.03;2.03;;;24.40;91.80;;;;;;6267195;28;20063;-82
2022/06/30 04:47:47;;;;;;;3.95;1.65;;;26.30;87.40;;;;;;6262766;28;20420;-81
2022/06/30 04:50:51;;;;;;;2.97;1.30;;;27.80;81.70;;;;;;6258947;28;20045;-82
2022/06/30 04:53:53;;;;;;;2.47;1.50;;;29.00;75.80;;;;;;6262003;28;20057;-81
2022/06/30 04:56:54;;;;;;;11.25;1.50;;;30.10;70.70;;;;;;6258263;28;20053;-81
2022/06/30 04:59:56;;;;;;;9.27;1.70;;;30.90;66.30;;;;;;6263402;28;20060;-82
2022/06/30 05:02:58;;;;;;;4.30;1.10;;;31.80;62.80;;;;;;6251318;28;20042;-82
2022/06/30 05:06:01;;;;;;;2.70;1.20;;;32.50;60.00;;;;;;6250689;28;20049;-82
2022/06/30 05:09:03;;;;;;;2.28;1.20;;;33.30;57.80;;;;;;6250814;28;20041;-81
2022/06/30 05:12:06;;;;;;;1.25;0.98;;;33.80;54.70;;;;;;6251329;28;20052;-81
2022/06/30 05:15:08;;;;;;;4.40;1.35;;;34.30;53.60;;;;;;6251516;28;20527;-80
2022/06/30 05:18:10;;;;;;;2.42;1.00;;;35.00;51.90;;;;;;6250911;28;20045;-82
2022/06/30 05:21:13;;;;;;;2.65;1.30;;;35.90;50.00;;;;;;6251318;28;20046;-80
2022/06/30 05:27:34;;;;;;;2.10;1.00;;;38.90;43.80;;;;;;6258638;28;20105;-82
2022/06/30 05:30:36;;;;;;;2.35;1.30;;;40.00;41.30;;;;;;6251781;28;20053;-82
2022/06/30 05:33:38;;;;;;;3.08;1.13;;;40.00;40.70;;;;;;6250185;28;20117;-81
2022/06/30 05:36:41;;;;;;;3.03;1.02;;;40.00;40.70;;;;;;6250250;28;20081;-81
2022/06/30 05:39:43;;;;;;;5.55;1.20;;;40.10;40.30;;;;;;6251149;28;20099;-81
2022/06/30 05:42:44;;;;;;;5.35;1.35;;;40.30;39.90;;;;;;6251220;28;20053;-82
2022/06/30 05:45:47;;;;;;;4.00;1.20;;;40.80;38.80;;;;;;6252447;28;20049;-82
2022/06/30 05:48:49;;;;;;;5.55;1.20;;;41.70;38.20;;;;;;6249541;28;20049;-81
2022/06/30 05:51:53;;;;;;;4.00;1.13;;;42.80;36.80;;;;;;6241614;28;20053;-82
2022/06/30 05:54:56;;;;;;;6.53;1.63;;;43.90;35.30;;;;;;6253190;28;20045;-80
2022/06/30 05:58:01;;;;;;;5.18;0.90;;;44.50;34.50;;;;;;6253871;28;20134;-82
2022/06/30 06:01:02;;;;;;;5.13;1.67;;;44.90;33.70;;;;;;6253859;28;20501;-79
2022/06/30 06:04:05;;;;;;;7.25;1.23;;;45.40;32.90;;;;;;6256007;28;20045;-79
2022/06/30 06:07:08;;;;;;;3.72;0.85;;;45.70;32.50;;;;;;6258717;28;20149;-80
2022/06/30 06:10:11;;;;;;;1.67;0.80;;;45.90;31.60;;;;;;6259652;28;20060;-81
2022/06/30 06:13:14;;;;;;;3.17;0.90;;;46.00;31.20;;;;;;6258318;28;20042;-82
2022/06/30 06:16:16;;;;;;;3.28;1.10;;;46.10;31.20;;;;;;6257343;28;20041;-79
2022/06/30 06:19:18;;;;;;;3.53;0.82;;;46.60;31.00;;;;;;6255465;28;20053;-79
2022/06/30 06:22:21;;;;;;;4.88;1.30;;;47.00;30.30;;;;;;6254248;28;20536;-80
2022/06/30 06:25:23;;;;;;;4.78;1.25;;;46.70;30.30;;;;;;6255165;28;20184;-79
2022/06/30 06:31:44;;;;;;;3.70;1.40;;;47.60;29.60;;;;;;6254920;28;20065;-79
2022/06/30 06:34:46;;;;;;;7.18;1.35;;;47.90;29.30;;;;;;6255281;28;20052;-80
2022/06/30 06:37:49;;;;;;;1.30;0.75;;;48.10;29.20;;;;;;6254246;28;20053;-80
2022/06/30 06:40:50;;;;;;;3.40;1.05;;;48.00;29.10;;;;;;6255660;28;20422;-80
2022/06/30 06:43:52;;;;;;;5.63;0.93;;;47.90;29.10;;;;;;6259029;28;20128;-80
2022/06/30 06:46:54;;;;;;;4.70;1.02;;;47.70;29.30;;;;;;6258991;28;20056;-80
2022/06/30 06:49:56;;;;;;;1.55;0.77;;;47.30;29.40;;;;;;6232362;28;20046;-80
2022/06/30 06:52:59;;;;;;;3.45;0.88;;;47.20;29.60;;;;;;6240788;28;20054;-78
2022/06/30 06:56:01;;;;;;;2.40;0.95;;;47.20;29.30;;;;;;6240164;28;20045;-79
2022/06/30 06:59:03;;;;;;;3.30;0.70;;;47.10;29.50;;;;;;6233215;28;20061;-81
2022/06/30 07:02:05;;;;;;;4.93;0.70;;;47.00;29.30;;;;;;6232120;28;20068;-78
2022/06/30 07:05:08;;;;;;;5.15;1.48;;;47.00;29.50;;;;;;6240073;28;20048;-79
2022/06/30 07:08:11;;;;;;;4.53;1.23;;;47.40;29.10;;;;;;6254154;28;20048;-80
2022/06/30 07:11:13;;;;;;;3.67;0.88;;;47.70;29.00;;;;;;6255875;28;20660;-80
2022/06/30 07:14:15;;;;;;;7.57;1.30;;;47.80;28.90;;;;;;6254393;28;20042;-80
2022/06/30 07:17:16;;;;;;;4.35;1.00;;;48.20;28.90;;;;;;6257128;28;20136;-80
2022/06/30 07:20:19;;;;;;;3.47;1.10;;;48.50;28.80;;;;;;6215458;28;20042;-80
2022/06/30 07:23:22;;;;;;;3.00;0.90;;;48.50;28.70;;;;;;6224583;28;20145;-80
2022/06/30 07:26:23;;;;;;;3.33;1.20;;;48.40;28.70;;;;;;6230167;28;20046;-83
2022/06/30 07:29:26;;;;;;;4.38;1.08;;;48.10;28.30;;;;;;6229786;28;20051;-83
2022/06/30 07:32:28;;;;;;;3.72;1.00;;;46.00;29.70;;;;;;6229985;28;20122;-84
2022/06/30 07:35:30;;;;;;;2.67;1.02;;;43.20;32.20;;;;;;6229139;28;20049;-83
2022/06/30 07:38:34;;;;;;;4.72;1.00;;;40.50;35.00;;;;;;6230363;28;20046;-83
2022/06/30 07:41:35;;;;;;;6.50;1.33;;;38.60;37.40;;;;;;6234121;28;20061;-83
2022/06/30 07:44:37;;;;;;;17.23;2.08;;;37.20;39.20;;;;;;6232749;28;20057;-83
2022/06/30 07:47:40;;;;;;;8.27;1.13;;;36.10;40.80;;;;;;6229610;28;20046;-82
2022/06/30 07:50:41;;;;;;;6.10;1.08;;;35.50;42.40;;;;;;6229059;28;20042;-83
2022/06/30 07:53:44;;;;;;;13.07;1.80;;;34.90;43.10;;;;;;6242503;28;20049;-84
2022/06/30 07:56:46;;;;;;;3.10;1.15;;;34.40;43.20;;;;;;6252576;28;20052;-84
2022/06/30 07:59:49;;;;;;;4.22;1.05;;;33.90;43.10;;;;;;6247255;28;20060;-85
2022/06/30 08:02:51;;;;;;;3.90;1.10;;;33.70;43.60;;;;;;6254001;28;20049;-85
2022/06/30 08:05:52;;;;;;;4.25;1.15;;;33.60;43.60;;;;;;6250067;28;20514;-83
2022/06/30 08:08:56;;;;;;;1.40;1.00;;;33.50;43.80;;;;;;6251355;28;20050;-84
2022/06/30 08:11:57;;;;;;;3.30;1.00;;;33.40;43.60;;;;;;6253937;28;20046;-85
2022/06/30 08:14:59;;;;;;;3.15;1.00;;;33.30;44.20;;;;;;6254202;28;20075;-85
2022/06/30 08:18:02;;;;;;;2.92;1.15;;;33.30;44.60;;;;;;6255128;28;20055;-84
2022/06/30 08:21:04;;;;;;;4.78;1.38;;;33.40;44.60;;;;;;6250481;28;20534;-83
2022/06/30 08:24:07;;;;;;;2.30;1.17;;;33.40;44.70;;;;;;6239364;28;20232;-83
2022/06/30 08:27:09;;;;;;;2.28;0.77;;;33.50;44.50;;;;;;6249314;28;20049;-83
2022/06/30 08:30:11;;;;;;;2.30;0.80;;;33.30;45.10;;;;;;6249954;28;20056;-82
2022/06/30 08:33:13;;;;;;;4.70;0.95;;;33.10;45.10;;;;;;6248816;28;20183;-84
2022/06/30 08:36:14;;;;;;;2.35;1.13;;;33.00;45.60;;;;;;6249361;28;20048;-82
2022/06/30 08:42:38;;;;;;;6.00;1.35;;;32.30;47.30;;;;;;6251753;28;20503;-83
2022/06/30 08:45:40;;;;;;;2.22;1.00;;;32.20;47.50;;;;;;6249629;28;20054;-82
2022/06/30 08:48:42;;;;;;;2.42;1.17;;;32.10;47.90;;;;;;6250453;28;20052;-84
2022/06/30 08:51:46;;;;;;;4.10;1.10;;;32.40;48.20;;;;;;6244120;28;20056;-84
2022/06/30 08:54:51;;;;;;;2.78;0.95;;;32.70;48.00;;;;;;6247232;28;20053;-84
2022/06/30 08:57:58;;;;;;;2.63;1.38;;;32.90;47.70;;;;;;6249391;28;20873;-83
2022/06/30 09:01:00;;;;;;;3.83;1.03;;;33.00;47.50;;;;;;6248921;28;20435;-84
2022/06/30 09:04:02;;;;;;;11.25;1.65;;;32.90;47.70;;;;;;6248684;28;20430;-84
2022/06/30 09:07:04;;;;;;;5.57;1.00;;;32.80;47.90;;;;;;6249949;28;20136;-84
2022/06/30 09:10:09;;;;;;;3.60;1.42;;;33.00;47.70;;;;;;6250577;28;20064;-84
2022/06/30 09:13:11;;;;;;;2.30;0.77;;;33.30;47.40;;;;;;6235135;28;20042;-84
2022/06/30 09:16:13;;;;;;;5.65;1.10;;;33.50;47.40;;;;;;6237045;28;20072;-83
2022/06/30 09:19:15;;;;;;;5.65;1.77;;;33.80;47.70;;;;;;6255770;28;20396;-83
2022/06/30 09:22:16;;;;;;;2.33;1.17;;;34.00;46.70;;;;;;6238412;28;20068;-84
2022/06/30 09:25:22;;;;;;;5.07;1.38;;;34.20;46.60;;;;;;6223860;28;20046;-84
2022/06/30 09:28:42;;;;;;;6.20;1.52;;;34.30;44.80;;;;;;6223591;28;20514;-83
2022/06/30 09:31:43;;;;;;;3.10;1.40;;;34.10;45.00;;;;;;6223879;28;20492;-84
2022/06/30 09:34:45;;;;;;;2.85;1.10;;;34.00;45.60;;;;;;6224158;28;20067;-84
2022/06/30 09:37:58;;;;;;;3.45;1.00;;;34.10;44.40;;;;;;6223591;28;20408;-83
2022/06/30 09:41:05;;;;;;;5.35;0.95;;;34.20;43.20;;;;;;6228942;28;20056;-85
2022/06/30 09:44:08;;;;;;;2.50;1.00;;;34.20;43.40;;;;;;6230266;28;20093;-85
2022/06/30 09:47:11;;;;;;;1.15;0.77;;;34.40;43.70;;;;;;6229241;28;20053;-84
2022/06/30 09:50:14;;;;;;;6.30;1.02;;;34.60;43.50;;;;;;6225626;28;20052;-85
2022/06/30 09:53:16;;;;;;;2.72;0.85;;;34.50;43.10;;;;;;6233233;28;20062;-85
2022/06/30 09:56:19;;;;;;;3.60;0.90;;;34.40;43.70;;;;;;6224936;28;20042;-84
2022/06/30 09:59:24;;;;;;;5.03;1.42;;;34.70;43.90;;;;;;6225476;28;20054;-84
2022/06/30 10:02:35;;;;;;;1.63;0.80;;;35.10;43.30;;;;;;6225239;28;20053;-84
2022/06/30 10:05:38;;;;;;;3.17;0.75;;;35.40;42.00;;;;;;6224349;28;20052;-84
2022/06/30 10:08:40;;;;;;;4.40;1.27;;;35.40;41.40;;;;;;6224282;28;20573;-83
2022/06/30 10:11:44;;;;;;;3.83;0.98;;;35.40;42.30;;;;;;6224566;28;20427;-84
2022/06/30 10:14:47;;;;;;;5.65;1.10;;;35.80;41.00;;;;;;6226410;28;20053;-84
2022/06/30 10:17:52;;;;;;;2.95;1.30;;;36.50;40.30;;;;;;6230223;28;20042;-84
2022/06/30 10:20:55;;;;;;;2.40;0.70;;;36.90;39.40;;;;;;6236051;28;20046;-84
2022/06/30 10:23:58;;;;;;;3.08;1.50;;;37.00;39.60;;;;;;6248000;28;20053;-84
2022/06/30 10:27:14;;;;;;;2.80;0.98;;;37.50;39.60;;;;;;6255959;28;20056;-84
2022/06/30 10:30:21;;;;;;;1.88;1.17;;;37.50;38.80;;;;;;6254839;28;20041;-84
2022/06/30 10:33:29;;;;;;;1.38;0.93;;;37.10;38.40;;;;;;6255742;28;20128;-83
2022/06/30 10:36:37;;;;;;;3.65;0.90;;;36.60;39.80;;;;;;6254885;28;20503;-83
2022/06/30 10:39:47;;;;;;;2.78;0.90;;;36.50;39.90;;;;;;6255108;28;20056;-85
2022/06/30 10:42:51;;;;;;;4.55;1.13;;;36.80;39.50;;;;;;6253256;28;20400;-84
2022/06/30 10:45:59;;;;;;;4.47;1.17;;;37.10;39.00;;;;;;6252423;28;20041;-84
2022/06/30 10:49:08;;;;;;;4.35;0.95;;;36.80;39.60;;;;;;6252652;28;20045;-84
2022/06/30 10:52:20;;;;;;;4.75;0.98;;;36.30;40.00;;;;;;6243531;28;20057;-84
2022/06/30 10:55:22;;;;;;;2.35;1.02;;;36.20;40.20;;;;;;6228933;28;20042;-83
2022/06/30 10:58:26;;;;;;;2.58;1.10;;;35.90;41.10;;;;;;6227180;28;20054;-84
2022/06/30 11:01:27;;;;;;;6.10;1.35;;;35.80;41.00;;;;;;6228149;28;20050;-84
2022/06/30 11:04:29;;;;;;;6.50;1.10;;;36.00;40.60;;;;;;6227441;28;20496;-84
2022/06/30 11:07:31;;;;;;;2.75;0.63;;;36.10;40.90;;;;;;6227997;28;20073;-84
2022/06/30 11:10:33;;;;;;;2.53;1.13;;;36.40;40.10;;;;;;6227658;28;20052;-83
2022/06/30 11:13:36;;;;;;;3.08;1.00;;;36.50;39.50;;;;;;6228528;28;20423;-85
2022/06/30 11:16:39;;;;;;;2.03;0.80;;;36.70;40.20;;;;;;6228980;28;20052;-84
2022/06/30 11:19:40;;;;;;;4.95;1.15;;;37.20;38.80;;;;;;6228833;28;20050;-82
2022/06/30 11:22:43;;;;;;;3.55;0.90;;;37.70;39.30;;;;;;6240359;28;20064;-85
2022/06/30 11:29:13;;;;;;;1.52;0.80;;;37.90;38.50;;;;;;6229112;28;20045;-84
2022/06/30 11:32:15;;;;;;;3.03;0.90;;;37.60;39.20;;;;;;6230658;28;20046;-84
2022/06/30 11:35:25;;;;;;;2.22;1.08;;;37.20;38.70;;;;;;6227539;28;20054;-83
2022/06/30 11:38:27;;;;;;;8.13;1.00;;;36.40;39.80;;;;;;6236068;28;20127;-84
2022/06/30 11:44:52;;;;;;;13.85;1.25;;;36.20;41.30;;;;;;6251588;28;20049;-84
2022/06/30 11:47:55;;;;;;;4.13;1.00;;;36.60;40.40;;;;;;6251081;28;20056;-84
2022/06/30 11:50:57;;;;;;;4.93;1.20;;;37.00;40.10;;;;;;6249501;28;20081;-83
2022/06/30 11:54:01;;;;;;;9.07;1.40;;;37.40;39.60;;;;;;6242346;28;20415;-84
2022/06/30 11:57:03;;;;;;;6.55;1.05;;;37.70;38.80;;;;;;6252437;28;20065;-84
2022/06/30 12:00:10;;;;;;;1.38;0.80;;;38.10;38.10;;;;;;6252147;28;20438;-83
2022/06/30 12:03:13;;;;;;;3.42;0.63;;;38.40;37.50;;;;;;6253855;28;20049;-86
2022/06/30 12:06:17;;;;;;;3.42;0.95;;;38.60;37.10;;;;;;6255506;28;20560;-84
2022/06/30 12:09:19;;;;;;;3.28;0.93;;;38.80;36.90;;;;;;6255250;28;20056;-84
2022/06/30 12:12:23;;;;;;;4.15;0.90;;;38.80;36.70;;;;;;6253160;28;20175;-84
2022/06/30 12:15:26;;;;;;;4.07;1.00;;;38.60;37.60;;;;;;6253457;28;20045;-84
2022/06/30 12:18:27;;;;;;;7.60;1.08;;;38.60;38.10;;;;;;6253254;28;20065;-83
2022/06/30 12:21:30;;;;;;;6.13;1.05;;;38.50;37.00;;;;;;6249304;28;20049;-85
2022/06/30 12:24:34;;;;;;;6.00;1.45;;;38.40;38.00;;;;;;6247324;28;20050;-84
2022/06/30 12:27:41;;;;;;;4.00;1.10;;;38.30;37.20;;;;;;6253259;28;20055;-84
2022/06/30 12:30:46;;;;;;;3.85;1.10;;;38.20;36.90;;;;;;6253690;28;20056;-84
2022/06/30 12:33:48;;;;;;;5.07;0.73;;;38.60;36.60;;;;;;6252973;28;20053;-85
2022/06/30 12:36:49;;;;;;;6.90;1.05;;;39.10;35.90;;;;;;6253062;28;20056;-84
2022/06/30 12:39:51;;;;;;;1.73;0.93;;;39.40;35.90;;;;;;6250414;28;20227;-84
2022/06/30 12:42:55;;;;;;;2.28;0.77;;;39.90;35.80;;;;;;6252886;28;20054;-85
2022/06/30 12:46:00;;;;;;;7.25;1.27;;;39.90;36.20;;;;;;6252951;28;20046;-84
2022/06/30 12:49:01;;;;;;;5.45;1.10;;;39.70;36.50;;;;;;6253172;28;20045;-83
2022/06/30 12:52:13;;;;;;;5.72;0.80;;;39.60;36.20;;;;;;6245272;28;20042;-84
2022/06/30 12:55:15;;;;;;;4.05;0.73;;;39.60;36.60;;;;;;6229635;28;20060;-84
2022/06/30 12:58:17;;;;;;;1.40;0.85;;;39.40;36.00;;;;;;6228174;28;20060;-84
2022/06/30 13:01:23;;;;;;;4.72;1.48;;;39.20;35.30;;;;;;6228410;28;20049;-84
2022/06/30 13:04:27;;;;;;;2.60;0.82;;;39.40;35.80;;;;;;6229333;28;20046;-84
2022/06/30 13:07:29;;;;;;;2.28;1.15;;;39.90;36.10;;;;;;6230548;28;20053;-84
2022/06/30 13:13:47;;;;;;;3.47;0.80;;;40.20;36.10;;;;;;6234233;28;20091;-85
2022/06/30 13:16:51;;;;;;;6.25;1.15;;;40.20;35.70;;;;;;6232915;28;20053;-85
2022/06/30 13:19:53;;;;;;;4.55;0.80;;;40.20;35.40;;;;;;6230149;28;20054;-84
2022/06/30 13:22:54;;;;;;;3.00;1.13;;;40.00;35.30;;;;;;6244118;28;20075;-85
2022/06/30 13:25:56;;;;;;;3.90;0.88;;;39.70;34.90;;;;;;6254457;28;20522;-85
2022/06/30 13:28:58;;;;;;;3.50;0.73;;;39.80;35.80;;;;;;6254834;28;20046;-85
2022/06/30 13:32:01;;;;;;;1.75;0.88;;;40.00;36.10;;;;;;6256271;28;20129;-85
2022/06/30 13:35:03;;;;;;;7.22;1.08;;;40.40;35.60;;;;;;6255787;28;20064;-84
2022/06/30 13:38:05;;;;;;;2.30;0.68;;;40.40;35.10;;;;;;6255186;28;20049;-84
2022/06/30 13:41:07;;;;;;;3.20;0.88;;;40.50;35.80;;;;;;6237312;28;20049;-85
2022/06/30 13:44:09;;;;;;;1.65;1.05;;;40.60;35.70;;;;;;6232031;28;20044;-84
2022/06/30 13:47:12;;;;;;;2.00;0.80;;;40.70;35.20;;;;;;6242466;28;20060;-84
2022/06/30 13:50:14;;;;;;;3.45;0.82;;;40.70;33.50;;;;;;6227117;28;20049;-85
2022/06/30 13:53:16;;;;;;;4.18;0.70;;;40.00;33.20;;;;;;6235464;28;20052;-84
2022/06/30 13:56:18;;;;;;;7.13;1.10;;;39.80;34.00;;;;;;6226974;28;20056;-84
2022/06/30 13:59:20;;;;;;;4.55;1.27;;;39.30;34.00;;;;;;6228249;28;20056;-84
2022/06/30 14:02:23;;;;;;;1.98;0.90;;;38.80;34.50;;;;;;6228300;28;20064;-85
2022/06/30 14:05:25;;;;;;;2.88;1.38;;;38.70;35.30;;;;;;6228459;28;20368;-85
2022/06/30 14:08:26;;;;;;;3.38;1.00;;;38.90;34.80;;;;;;6228188;28;20500;-84
2022/06/30 14:11:28;;;;;;;1.90;0.75;;;39.10;34.70;;;;;;6229690;28;20050;-85
2022/06/30 14:14:30;;;;;;;3.72;0.95;;;39.40;33.90;;;;;;6227976;28;20053;-84
2022/06/30 14:17:33;;;;;;;8.13;1.23;;;39.80;34.10;;;;;;6227748;28;20149;-83
2022/06/30 14:20:35;;;;;;;1.63;0.88;;;40.20;33.50;;;;;;6231031;28;20045;-83
2022/06/30 14:23:36;;;;;;;7.68;0.73;;;40.30;33.60;;;;;;6244355;28;20591;-85
2022/06/30 14:26:38;;;;;;;4.53;0.85;;;39.90;33.60;;;;;;6252447;28;20052;-83
2022/06/30 14:29:42;;;;;;;2.05;0.70;;;39.70;34.00;;;;;;6253416;28;20426;-83
2022/06/30 14:32:45;;;;;;;4.97;0.85;;;39.60;33.70;;;;;;6252994;28;20046;-85
2022/06/30 14:35:47;;;;;;;4.18;0.95;;;40.10;33.50;;;;;;6250416;28;20468;-85
2022/06/30 14:38:48;;;;;;;8.68;0.90;;;40.30;33.40;;;;;;6251206;28;20051;-84
2022/06/30 14:45:10;;;;;;;6.45;0.80;;;40.40;33.70;;;;;;6229731;28;20049;-83
2022/06/30 14:48:13;;;;;;;4.97;0.90;;;40.40;33.80;;;;;;6230363;28;20056;-85
2022/06/30 14:51:15;;;;;;;4.22;1.13;;;40.30;34.00;;;;;;6238620;28;20045;-84
2022/06/30 14:54:18;;;;;;;4.47;0.80;;;40.00;33.50;;;;;;6246083;28;20055;-85
2022/06/30 14:57:20;;;;;;;4.03;0.63;;;39.50;33.50;;;;;;6255031;28;20134;-84
2022/06/30 15:00:23;;;;;;;1.77;0.75;;;38.90;34.10;;;;;;6253878;28;20519;-85
2022/06/30 15:03:34;;;;;;;5.70;0.93;;;38.70;35.00;;;;;;6257400;28;20050;-84
2022/06/30 15:06:36;;;;;;;2.08;0.70;;;38.50;34.70;;;;;;6257089;28;20042;-84
2022/06/30 15:09:39;;;;;;;3.65;1.35;;;38.10;36.00;;;;;;6256770;28;20045;-84
2022/06/30 15:12:41;;;;;;;5.50;1.20;;;37.80;35.70;;;;;;6258873;28;20045;-83
2022/06/30 15:15:43;;;;;;;3.72;0.70;;;37.70;36.00;;;;;;6255418;28;20045;-85
2022/06/30 15:18:46;;;;;;;4.13;1.10;;;37.60;36.30;;;;;;6257011;28;20052;-85
2022/06/30 15:25:08;;;;;;;2.40;0.98;;;37.50;36.30;;;;;;6232295;28;20085;-84
2022/06/30 15:28:10;;;;;;;5.82;1.35;;;37.50;36.60;;;;;;6231124;28;20534;-84
2022/06/30 15:31:11;;;;;;;2.70;1.00;;;37.30;37.90;;;;;;6231906;28;20081;-84
2022/06/30 15:34:15;;;;;;;7.35;1.13;;;36.60;38.50;;;;;;6233732;28;20056;-82
2022/06/30 15:37:17;;;;;;;1.30;0.93;;;35.70;39.90;;;;;;6235391;28;20053;-83
2022/06/30 15:40:19;;;;;;;3.60;1.15;;;34.90;40.20;;;;;;6222792;28;20046;-82
2022/06/30 15:43:21;;;;;;;4.45;1.30;;;34.00;41.60;;;;;;6237097;28;20054;-83
2022/06/30 15:46:23;;;;;;;3.17;0.90;;;33.40;42.70;;;;;;6232397;28;20529;-82
2022/06/30 15:49:26;;;;;;;4.78;1.50;;;33.00;43.00;;;;;;6231102;28;20482;-81
2022/06/30 15:52:29;;;;;;;10.20;1.05;;;32.60;43.60;;;;;;6241447;28;20598;-82
2022/06/30 15:55:39;;;;;;;2.90;1.13;;;32.30;44.00;;;;;;6258348;28;20049;-81
2022/06/30 15:58:43;;;;;;;1.02;0.70;;;32.30;44.10;;;;;;6260264;28;20076;-83
2022/06/30 16:01:45;;;;;;;3.38;1.33;;;32.20;43.40;;;;;;6260233;28;20060;-82
2022/06/30 16:04:48;;;;;;;4.43;1.55;;;32.10;43.40;;;;;;6260682;28;20053;-82
2022/06/30 16:07:50;;;;;;;2.65;0.93;;;31.90;43.40;;;;;;6258106;28;20049;-82
2022/06/30 16:10:52;;;;;;;2.90;1.13;;;32.00;43.50;;;;;;6261027;28;20053;-82
2022/06/30 16:13:54;;;;;;;4.13;0.98;;;31.90;43.20;;;;;;6260072;28;20050;-82
2022/06/30 16:16:57;;;;;;;2.50;0.60;;;31.80;42.60;;;;;;6258864;28;20056;-82
2022/06/30 16:20:00;;;;;;;2.97;0.82;;;31.90;42.80;;;;;;6256609;28;20069;-81
2022/06/30 16:23:01;;;;;;;2.25;1.35;;;32.00;42.80;;;;;;6248713;28;20045;-82
2022/06/30 16:26:04;;;;;;;3.53;0.95;;;32.00;43.30;;;;;;6259333;28;20041;-82
2022/06/30 16:29:06;;;;;;;1.83;0.90;;;32.20;44.50;;;;;;6258495;28;20041;-83
2022/06/30 16:32:08;;;;;;;3.25;1.30;;;32.40;44.00;;;;;;6261551;28;20053;-81
2022/06/30 16:35:11;;;;;;;5.95;0.82;;;32.40;44.40;;;;;;6262395;28;20061;-82